createdAt,value
2019-05-22T00:01:56.613Z,14.34
2019-05-22T00:04:31.566Z,14.34
2019-05-22T00:07:05.743Z,14.30
2019-05-22T00:09:38.925Z,14.32
2019-05-22T00:12:11.586Z,14.33
2019-05-22T00:14:41.679Z,14.25
2019-05-22T00:17:13.767Z,14.25
2019-05-22T00:19:44.400Z,14.24
2019-05-22T00:22:25.136Z,14.22
2019-05-22T00:24:56.351Z,14.21
2019-05-22T00:27:27.800Z,14.20
2019-05-22T00:29:57.982Z,14.16
2019-05-22T00:32:29.090Z,14.12
2019-05-22T00:34:58.691Z,14.06
2019-05-22T00:37:29.172Z,14.00
2019-05-22T00:40:00.786Z,14.02
2019-05-22T00:42:32.949Z,13.98
2019-05-22T00:45:02.580Z,13.97
2019-05-22T00:47:33.820Z,13.93
2019-05-22T00:50:05.097Z,13.91
2019-05-22T00:52:52.215Z,13.92
2019-05-22T00:55:24.504Z,13.90
2019-05-22T00:57:58.708Z,13.91
2019-05-22T01:00:45.261Z,13.89
2019-05-22T01:03:17.013Z,13.83
2019-05-22T01:05:48.170Z,13.73
2019-05-22T01:08:17.633Z,13.72
2019-05-22T01:10:50.940Z,13.68
2019-05-22T01:13:22.031Z,13.64
2019-05-22T01:15:52.080Z,13.57
2019-05-22T01:18:23.485Z,13.58
2019-05-22T01:20:55.333Z,13.60
2019-05-22T01:23:25.539Z,13.55
2019-05-22T01:25:56.169Z,13.54
2019-05-22T01:28:26.068Z,13.54
2019-05-22T01:30:58.344Z,13.51
2019-05-22T01:33:32.288Z,13.52
2019-05-22T01:36:03.403Z,13.56
2019-05-22T01:38:34.800Z,13.54
2019-05-22T01:41:23.548Z,13.49
2019-05-22T01:43:55.256Z,13.50
2019-05-22T01:46:25.867Z,13.48
2019-05-22T01:48:59.675Z,13.49
2019-05-22T01:51:29.339Z,13.50
2019-05-22T01:54:00.154Z,13.48
2019-05-22T01:56:30.768Z,13.49
2019-05-22T01:59:00.295Z,13.47
2019-05-22T02:01:32.408Z,13.44
2019-05-22T02:04:02.307Z,13.41
2019-05-22T02:06:32.898Z,13.39
2019-05-22T02:09:21.656Z,13.38
2019-05-22T02:11:54.380Z,13.36
2019-05-22T02:14:25.598Z,13.37
2019-05-22T02:16:58.250Z,13.35
2019-05-22T02:19:28.482Z,13.33
2019-05-22T02:21:59.831Z,13.30
2019-05-22T02:24:31.184Z,13.30
2019-05-22T02:27:02.298Z,13.31
2019-05-22T02:29:32.927Z,13.37
2019-05-22T02:32:02.393Z,13.41
2019-05-22T02:34:32.433Z,13.45
2019-05-22T02:37:02.206Z,13.46
2019-05-22T02:39:33.142Z,13.47
2019-05-22T02:42:06.661Z,13.42
2019-05-22T02:44:38.693Z,13.45
2019-05-22T02:47:19.211Z,13.48
2019-05-22T02:49:43.505Z,13.48
2019-05-22T02:52:15.274Z,13.43
2019-05-22T02:54:45.458Z,13.38
2019-05-22T02:57:15.476Z,13.33
2019-05-22T03:02:26.532Z,13.38
2019-05-22T03:05:11.280Z,13.44
2019-05-22T03:07:41.926Z,13.42
2019-05-22T03:10:13.241Z,13.30
2019-05-22T03:12:45.653Z,13.24
2019-05-22T03:15:18.156Z,13.21
2019-05-22T03:17:50.017Z,13.18
2019-05-22T03:20:21.026Z,13.10
2019-05-22T03:22:57.278Z,13.06
2019-05-22T03:25:28.499Z,13.05
2019-05-22T03:27:58.731Z,13.02
2019-05-22T03:30:32.727Z,13.00
2019-05-22T03:33:06.745Z,13.02
2019-05-22T03:35:39.338Z,13.03
2019-05-22T03:38:10.486Z,13.05
2019-05-22T03:40:41.217Z,13.04
2019-05-22T03:43:28.393Z,13.06
2019-05-22T03:46:00.769Z,13.08
2019-05-22T03:48:37.812Z,13.03
2019-05-22T03:51:14.311Z,13.03
2019-05-22T03:53:46.516Z,13.01
2019-05-22T03:56:17.816Z,13.02
2019-05-22T03:58:47.491Z,13.01
2019-05-22T04:01:18.775Z,13.01
2019-05-22T04:03:49.802Z,13.07
2019-05-22T04:06:20.998Z,13.14
2019-05-22T04:08:52.157Z,13.20
2019-05-22T04:11:23.195Z,13.17
2019-05-22T04:13:53.236Z,13.07
2019-05-22T04:16:24.411Z,12.99
2019-05-22T04:18:56.082Z,12.98
2019-05-22T04:21:25.791Z,12.99
2019-05-22T04:23:56.560Z,12.98
2019-05-22T04:26:28.499Z,13.04
2019-05-22T04:28:59.007Z,12.95
2019-05-22T04:31:52.044Z,12.85
2019-05-22T04:34:21.908Z,12.85
2019-05-22T04:36:52.006Z,12.92
2019-05-22T04:39:24.343Z,12.94
2019-05-22T04:41:55.622Z,12.90
2019-05-22T04:44:26.482Z,12.87
2019-05-22T04:46:56.617Z,12.87
2019-05-22T04:49:26.414Z,12.86
2019-05-22T04:51:56.447Z,12.93
2019-05-22T04:54:26.051Z,12.94
2019-05-22T04:56:55.677Z,12.96
2019-05-22T04:59:26.599Z,12.96
2019-05-22T05:01:56.891Z,12.99
2019-05-22T05:04:27.047Z,13.00
2019-05-22T05:06:56.689Z,12.96
2019-05-22T05:09:26.559Z,12.95
2019-05-22T05:11:56.494Z,13.00
2019-05-22T05:14:26.364Z,13.03
2019-05-22T05:16:56.040Z,13.04
2019-05-22T05:19:26.337Z,13.05
2019-05-22T05:21:55.912Z,13.01
2019-05-22T05:24:25.459Z,12.98
2019-05-22T05:26:55.841Z,12.90
2019-05-22T05:29:27.639Z,12.90
2019-05-22T05:31:59.087Z,12.92
2019-05-22T05:34:37.646Z,12.93
2019-05-22T05:37:08.153Z,13.01
2019-05-22T05:39:42.334Z,13.07
2019-05-22T05:42:12.076Z,13.07
2019-05-22T05:44:42.448Z,13.05
2019-05-22T05:47:12.289Z,13.05
2019-05-22T05:49:42.511Z,13.11
2019-05-22T05:52:13.435Z,13.16
2019-05-22T05:54:43.796Z,13.22
2019-05-22T05:57:34.523Z,13.27
2019-05-22T06:00:08.349Z,13.23
2019-05-22T06:02:37.999Z,13.22
2019-05-22T06:05:08.295Z,13.27
2019-05-22T06:07:38.564Z,13.32
2019-05-22T06:10:27.816Z,13.37
2019-05-22T06:12:58.434Z,13.39
2019-05-22T06:15:46.357Z,13.39
2019-05-22T06:18:27.814Z,13.40
2019-05-22T06:21:03.990Z,13.45
2019-05-22T06:23:32.762Z,13.45
2019-05-22T06:26:04.986Z,13.50
2019-05-22T06:28:38.228Z,13.57
2019-05-22T06:31:11.235Z,13.69
2019-05-22T06:33:40.730Z,13.77
2019-05-22T06:36:13.087Z,13.82
2019-05-22T06:38:52.496Z,13.84
2019-05-22T06:41:24.577Z,13.81
2019-05-22T06:44:07.099Z,13.84
2019-05-22T06:46:49.529Z,13.84
2019-05-22T06:49:34.168Z,13.88
2019-05-22T06:52:05.496Z,13.73
2019-05-22T06:54:35.162Z,13.75
2019-05-22T06:57:08.249Z,13.75
2019-05-22T06:59:38.574Z,13.76
2019-05-22T07:02:09.762Z,13.71
2019-05-22T07:04:40.169Z,13.78
2019-05-22T07:07:11.808Z,13.82
2019-05-22T07:09:41.960Z,13.69
2019-05-22T07:12:17.473Z,13.62
2019-05-22T07:15:07.091Z,13.53
2019-05-22T07:17:39.202Z,13.55
2019-05-22T07:20:10.975Z,13.59
2019-05-22T07:22:40.619Z,13.58
2019-05-22T07:25:10.957Z,13.53
2019-05-22T07:27:41.255Z,13.57
2019-05-22T07:30:11.245Z,13.65
2019-05-22T07:32:42.675Z,13.57
2019-05-22T07:35:13.289Z,13.51
2019-05-22T07:37:45.804Z,13.59
2019-05-22T07:40:15.659Z,13.65
2019-05-22T07:42:45.755Z,13.72
2019-05-22T07:45:16.408Z,13.83
2019-05-22T07:47:47.963Z,13.96
2019-05-22T07:50:19.512Z,14.12
2019-05-22T07:52:50.475Z,14.19
2019-05-22T07:55:22.277Z,14.14
2019-05-22T07:58:09.980Z,14.15
2019-05-22T08:00:42.758Z,14.14
2019-05-22T08:03:12.687Z,14.00
2019-05-22T08:05:45.282Z,13.96
2019-05-22T08:08:18.743Z,13.94
2019-05-22T08:10:47.895Z,14.01
2019-05-22T08:13:18.115Z,13.89
2019-05-22T08:15:48.216Z,13.93
2019-05-22T08:18:18.246Z,13.84
2019-05-22T08:20:48.543Z,13.82
2019-05-22T08:23:19.212Z,13.86
2019-05-22T08:25:48.859Z,13.71
2019-05-22T08:28:19.927Z,13.69
2019-05-22T08:30:50.074Z,13.77
2019-05-22T08:33:20.895Z,13.88
2019-05-22T08:35:52.956Z,13.98
2019-05-22T08:38:29.154Z,14.00
2019-05-22T08:41:01.307Z,13.91
2019-05-22T08:43:56.132Z,13.81
2019-05-22T08:46:07.545Z,13.85
2019-05-22T08:48:40.618Z,13.81
2019-05-22T08:51:10.895Z,13.84
2019-05-22T08:53:47.641Z,13.75
2019-05-22T08:56:13.198Z,13.70
2019-05-22T08:58:45.111Z,13.73
2019-05-22T09:01:15.782Z,13.74
2019-05-22T09:03:45.507Z,13.83
2019-05-22T09:06:16.018Z,13.90
2019-05-22T09:08:46.154Z,13.96
2019-05-22T09:11:15.770Z,14.09
2019-05-22T09:13:45.516Z,14.17
2019-05-22T09:16:16.857Z,14.08
2019-05-22T09:18:46.700Z,14.20
2019-05-22T09:21:16.708Z,14.15
2019-05-22T09:23:47.439Z,14.10
2019-05-22T09:26:18.387Z,14.14
2019-05-22T09:28:47.944Z,14.19
2019-05-22T09:31:18.576Z,14.16
2019-05-22T09:33:49.175Z,14.17
2019-05-22T09:36:18.634Z,14.14
2019-05-22T09:38:52.196Z,14.10
2019-05-22T09:41:20.210Z,14.05
2019-05-22T09:43:49.706Z,14.05
2019-05-22T09:46:19.376Z,14.22
2019-05-22T09:48:49.001Z,14.35
2019-05-22T09:51:19.801Z,14.38
2019-05-22T09:53:49.695Z,14.28
2019-05-22T09:56:19.315Z,14.18
2019-05-22T09:58:48.817Z,14.20
2019-05-22T10:01:18.510Z,14.22
2019-05-22T10:03:48.448Z,14.07
2019-05-22T10:06:21.528Z,14.04
2019-05-22T10:08:49.675Z,14.03
2019-05-22T10:11:20.831Z,14.11
2019-05-22T10:13:50.706Z,14.05
2019-05-22T10:16:20.747Z,14.02
2019-05-22T10:18:53.059Z,13.97
2019-05-22T10:21:22.320Z,13.74
2019-05-22T10:23:52.399Z,13.52
2019-05-22T10:26:22.109Z,13.54
2019-05-22T10:28:51.984Z,13.65
2019-05-22T10:31:22.863Z,13.78
2019-05-22T10:33:52.597Z,13.75
2019-05-22T10:36:22.194Z,13.77
2019-05-22T10:38:51.731Z,13.72
2019-05-22T10:41:22.218Z,13.67
2019-05-22T10:43:52.194Z,13.75
2019-05-22T10:46:22.346Z,13.79
2019-05-22T10:48:51.928Z,13.84
2019-05-22T10:51:21.793Z,14.02
2019-05-22T10:53:51.910Z,14.33
2019-05-22T10:56:21.368Z,14.60
2019-05-22T10:58:52.307Z,14.83
2019-05-22T11:01:23.367Z,15.00
2019-05-22T11:03:54.798Z,14.94
2019-05-22T11:06:25.001Z,14.93
2019-05-22T11:08:55.561Z,14.92
2019-05-22T11:11:25.258Z,14.94
2019-05-22T11:14:01.367Z,14.97
2019-05-22T11:16:27.966Z,14.73
2019-05-22T11:19:21.328Z,14.62
2019-05-22T11:22:13.491Z,14.55
2019-05-22T11:51:33.981Z,15.34
2019-05-22T11:55:07.298Z,15.07
2019-05-22T12:05:19.917Z,14.80
2019-05-22T12:20:11.513Z,15.34
2019-05-22T12:23:25.963Z,15.62
2019-05-22T12:26:03.977Z,15.73
2019-05-22T12:32:15.079Z,15.56
2019-05-22T12:38:12.458Z,15.42
2019-05-22T12:41:00.358Z,15.50
2019-05-22T12:47:00.785Z,15.73
2019-05-22T12:53:01.886Z,15.70
2019-05-22T12:55:35.807Z,15.66
2019-05-22T12:58:11.603Z,15.70
2019-05-22T13:00:43.929Z,15.85
2019-05-22T13:03:19.082Z,16.00
2019-05-22T13:06:15.223Z,16.05
2019-05-22T14:32:31.041Z,17.26
2019-05-22T14:34:59.550Z,17.45
2019-05-22T14:37:29.408Z,17.53
2019-05-22T14:39:59.080Z,17.68
2019-05-22T14:42:29.734Z,17.64
2019-05-22T14:44:59.484Z,17.62
2019-05-22T14:47:29.212Z,17.82
2019-05-22T14:49:58.841Z,17.91
2019-05-22T14:52:28.937Z,18.07
2019-05-22T14:54:58.891Z,17.97
2019-05-22T14:57:28.501Z,17.77
2019-05-22T14:59:58.244Z,17.80
2019-05-22T15:02:28.303Z,17.79
2019-05-22T15:04:58.433Z,17.69
2019-05-22T15:07:27.958Z,17.66
2019-05-22T15:09:57.833Z,17.78
2019-05-22T15:12:27.782Z,17.80
2019-05-22T15:14:58.714Z,17.91
2019-05-22T15:17:32.835Z,17.96
2019-05-22T15:19:59.675Z,17.83
2019-05-22T15:22:29.892Z,17.76
2019-05-22T15:24:59.629Z,17.82
2019-05-22T15:27:29.858Z,17.88
2019-05-22T15:29:59.783Z,18.09
2019-05-22T15:32:30.315Z,18.28
2019-05-22T15:35:00.035Z,18.23
2019-05-22T15:37:29.823Z,18.15
2019-05-22T15:39:59.391Z,18.11
2019-05-22T15:42:34.666Z,18.01
2019-05-22T15:45:07.322Z,17.98
2019-05-22T15:47:53.766Z,17.86
2019-05-22T15:50:11.059Z,17.63
2019-05-22T15:52:43.644Z,17.37
2019-05-22T15:55:14.549Z,17.25
2019-05-22T15:57:45.520Z,17.33
2019-05-22T16:00:19.060Z,17.46
2019-05-22T16:02:49.792Z,17.42
2019-05-22T16:05:20.926Z,17.46
2019-05-22T16:07:52.753Z,17.47
2019-05-22T16:10:24.145Z,17.45
2019-05-22T16:12:55.547Z,17.46
2019-05-22T16:15:26.903Z,17.40
2019-05-22T16:18:11.133Z,17.42
2019-05-22T16:20:32.847Z,17.37
2019-05-22T16:23:03.012Z,17.45
2019-05-22T16:25:33.695Z,17.51
2019-05-22T16:28:04.480Z,17.63
2019-05-22T16:30:35.010Z,17.89
2019-05-22T16:33:07.042Z,17.76
2019-05-22T16:35:36.828Z,17.52
2019-05-22T16:38:08.410Z,17.84
2019-05-22T16:40:39.640Z,17.96
2019-05-22T16:43:10.256Z,17.84
2019-05-22T16:45:40.114Z,17.86
2019-05-22T16:48:27.311Z,18.15
2019-05-22T16:50:42.602Z,18.12
2019-05-22T16:53:13.765Z,17.98
2019-05-22T16:55:44.104Z,18.25
2019-05-22T16:58:14.069Z,17.88
2019-05-22T17:00:45.793Z,17.58
2019-05-22T17:03:17.046Z,17.39
2019-05-22T17:05:46.797Z,17.28
2019-05-22T17:08:16.833Z,17.10
2019-05-22T17:10:46.843Z,16.92
2019-05-22T17:13:16.763Z,16.83
2019-05-22T17:15:47.430Z,16.72
2019-05-22T17:18:18.081Z,16.61
2019-05-22T17:20:48.217Z,17.98
2019-05-22T17:23:17.747Z,19.63
2019-05-22T17:25:47.836Z,18.73
2019-05-22T17:28:17.807Z,18.20
2019-05-22T17:30:47.867Z,17.78
2019-05-22T17:33:18.434Z,17.47
2019-05-22T17:35:48.131Z,17.19
2019-05-22T17:38:18.957Z,16.98
2019-05-22T17:40:50.162Z,16.86
2019-05-22T17:43:20.451Z,16.78
2019-05-22T17:45:51.862Z,16.70
2019-05-22T17:48:21.899Z,16.62
2019-05-22T17:50:53.559Z,16.57
2019-05-22T17:53:24.201Z,16.52
2019-05-22T17:55:54.451Z,16.44
2019-05-22T17:58:29.004Z,16.35
2019-05-22T18:00:56.282Z,16.28
2019-05-22T18:03:25.947Z,16.25
2019-05-22T18:05:55.773Z,16.21
2019-05-22T18:08:26.405Z,16.16
2019-05-22T18:10:58.063Z,16.12
2019-05-22T18:13:28.949Z,16.06
2019-05-22T18:15:58.790Z,15.98
2019-05-22T18:18:28.493Z,15.94
2019-05-22T18:20:58.185Z,15.91
2019-05-22T18:23:27.735Z,15.89
2019-05-22T18:25:57.295Z,15.85
2019-05-22T18:28:27.426Z,15.84
2019-05-22T18:30:57.305Z,15.82
2019-05-22T18:33:28.199Z,15.76
2019-05-22T18:35:59.193Z,15.72
2019-05-22T18:38:28.744Z,15.67
2019-05-22T18:40:59.824Z,15.61
2019-05-22T18:43:29.604Z,15.58
2019-05-22T18:45:59.247Z,15.54
2019-05-22T18:48:28.799Z,15.48
2019-05-22T18:50:58.585Z,15.43
2019-05-22T18:53:28.249Z,15.38
2019-05-22T18:55:57.916Z,15.31
2019-05-22T18:58:28.206Z,15.27
2019-05-22T19:00:58.832Z,15.22
2019-05-22T19:03:28.459Z,15.17
2019-05-22T19:05:58.158Z,15.10
2019-05-22T19:08:28.212Z,15.06
2019-05-22T19:10:58.741Z,15.00
2019-05-22T19:13:28.380Z,14.95
2019-05-22T19:15:57.854Z,14.89
2019-05-22T19:18:27.554Z,14.84
2019-05-22T19:20:57.040Z,14.80
2019-05-22T19:23:26.604Z,14.76
2019-05-22T19:25:56.338Z,14.70
2019-05-22T19:28:41.979Z,14.65
2019-05-22T19:30:57.559Z,14.60
2019-05-22T19:33:27.302Z,14.57
2019-05-22T19:35:56.860Z,14.51
2019-05-22T19:38:27.253Z,14.45
2019-05-22T19:40:57.149Z,14.42
2019-05-22T19:43:26.697Z,14.37
2019-05-22T19:45:56.851Z,14.33
2019-05-22T19:48:28.541Z,14.28
2019-05-22T19:51:01.770Z,14.24
2019-05-22T19:53:31.087Z,14.18
2019-05-22T19:56:00.821Z,14.12
2019-05-22T19:58:30.766Z,14.10
2019-05-22T20:01:00.494Z,14.03
2019-05-22T20:03:30.303Z,13.98
2019-05-22T20:06:00.465Z,13.94
2019-05-22T20:08:30.362Z,13.90
2019-05-22T20:11:00.294Z,13.83
2019-05-22T20:13:30.319Z,13.78
2019-05-22T20:15:59.912Z,13.72
2019-05-22T20:18:30.157Z,13.67
2019-05-22T20:21:00.583Z,13.62
2019-05-22T20:23:35.774Z,13.54
2019-05-22T20:26:02.524Z,13.48
2019-05-22T20:28:32.802Z,13.41
2019-05-22T20:31:03.030Z,13.36
2019-05-22T20:33:33.059Z,13.32
2019-05-22T20:36:03.261Z,13.24
2019-05-22T20:38:33.780Z,13.17
2019-05-22T20:41:03.690Z,13.12
2019-05-22T20:43:34.063Z,13.09
2019-05-22T20:46:05.929Z,13.06
2019-05-22T20:48:36.052Z,13.02
2019-05-22T20:51:07.742Z,12.96
2019-05-22T20:53:52.990Z,12.90
2019-05-22T20:56:11.476Z,12.86
2019-05-22T20:58:43.251Z,12.82
2019-05-22T21:01:13.572Z,12.79
2019-05-22T21:03:44.007Z,12.73
2019-05-22T21:06:15.701Z,12.70
2019-05-22T21:08:46.595Z,12.66
2019-05-22T21:11:17.621Z,12.62
2019-05-22T21:13:47.655Z,12.59
2019-05-22T21:16:17.767Z,12.57
2019-05-22T21:18:52.272Z,12.55
2019-05-22T21:21:23.688Z,12.53
2019-05-22T21:24:07.718Z,12.49
2019-05-22T21:26:25.679Z,12.44
2019-05-22T21:28:55.503Z,12.40
2019-05-22T21:31:25.666Z,12.37
2019-05-22T21:33:56.913Z,12.33
2019-05-22T21:36:29.619Z,12.29
2019-05-22T21:38:59.750Z,12.24
2019-05-22T21:41:30.307Z,12.21
2019-05-22T21:44:00.083Z,12.19
2019-05-22T21:46:30.122Z,12.17
2019-05-22T21:49:00.113Z,12.11
2019-05-22T21:51:29.976Z,12.07
2019-05-22T21:53:59.506Z,12.06
2019-05-22T21:56:30.472Z,12.07
2019-05-22T21:59:00.043Z,12.04
2019-05-22T22:01:34.893Z,12.03
2019-05-22T22:04:06.056Z,12.03
2019-05-22T22:06:35.971Z,12.03
2019-05-22T22:09:08.316Z,12.02
2019-05-22T22:11:38.786Z,12.03
2019-05-22T22:14:09.033Z,12.01
2019-05-22T22:16:39.790Z,12.00
2019-05-22T22:19:10.986Z,12.00
2019-05-22T22:21:40.803Z,11.96
2019-05-22T22:24:10.894Z,11.92
2019-05-22T22:26:41.073Z,11.87
2019-05-22T22:29:10.649Z,11.87
2019-05-22T22:31:41.482Z,11.89
2019-05-22T22:34:17.479Z,11.93
2019-05-22T22:36:49.466Z,11.98
2019-05-22T22:39:21.552Z,12.05
2019-05-22T22:41:52.354Z,12.14
2019-05-22T22:44:23.179Z,12.23
2019-05-22T22:46:57.466Z,12.31
2019-05-22T22:49:28.128Z,12.40
2019-05-22T22:51:59.227Z,12.44
2019-05-22T22:54:29.152Z,12.49
2019-05-22T22:57:00.059Z,12.51
2019-05-22T22:59:29.853Z,12.51
2019-05-22T23:02:01.657Z,12.48
2019-05-22T23:04:32.107Z,12.48
2019-05-22T23:07:06.219Z,12.46
2019-05-22T23:09:38.885Z,12.41
2019-05-22T23:12:09.999Z,12.38
2019-05-22T23:14:42.493Z,12.31
2019-05-22T23:17:12.752Z,12.24
2019-05-22T23:19:43.080Z,12.19
2019-05-22T23:22:13.355Z,12.15
2019-05-22T23:24:43.887Z,12.11
2019-05-22T23:27:15.262Z,12.08
2019-05-22T23:29:45.401Z,12.06
2019-05-22T23:32:17.817Z,12.06
2019-05-22T23:34:48.427Z,12.07
2019-05-22T23:37:20.448Z,12.06
2019-05-22T23:39:53.106Z,12.06
2019-05-22T23:42:25.743Z,12.08
2019-05-22T23:44:57.115Z,12.04
2019-05-22T23:47:28.111Z,12.01
2019-05-22T23:49:58.077Z,11.96
2019-05-22T23:52:27.978Z,11.93
2019-05-22T23:54:58.012Z,11.89
2019-05-22T23:57:28.300Z,11.86
2019-05-22T23:59:58.919Z,11.83
